PIMOHWEATHER Station Historical Data
Daily Summary for August 09, 2020 Units:  Metric    English   Both
Daily Weekly Monthly Yearly
  High: Low: Average:
Temperature: 30.0 °C 25.0 °C 26.9 °C
Dew Point: 26.0 °C 23.0 °C 24.3 °C
Humidity: 94% 74% 86%
Wind Speed: 55km/h 1km/h 23.7km/h
Wind Gust: 68km/h - -
Wind- - South
Pressure: 1013.8 hPa 1008.5 hPa -
Precipitation: 25.81 mm    
 
 
Tabular Data for August 09, 2020
Time Temperature Dew Point Pressure Wind Wind Speed Wind Gust Humidity Rainfall Rate (Hourly) solar
00:04 27.0 °C 23.0 °C 1009.9 hPa SSE 15 km/h 20 km/h 80% 0.00 mm 0.00 W/m2
00:09 27.0 °C 23.0 °C 1009.9 hPa SSE 15 km/h 20 km/h 80% 0.00 mm 0.00 W/m2
00:14 27.0 °C 23.0 °C 1010.1 hPa SSE 15 km/h 24 km/h 81% 0.00 mm 0.00 W/m2
00:19 27.0 °C 23.0 °C 1010.0 hPa SSE 15 km/h 20 km/h 81% 0.00 mm 0.00 W/m2
00:24 27.0 °C 23.0 °C 1009.9 hPa SSE 16 km/h 20 km/h 81% 0.00 mm 0.00 W/m2
00:29 27.0 °C 23.0 °C 1009.8 hPa SSE 10 km/h 12 km/h 81% 0.00 mm 0.00 W/m2
00:34 27.0 °C 23.0 °C 1009.8 hPa South 14 km/h 16 km/h 81% 0.00 mm 0.00 W/m2
00:39 27.0 °C 24.0 °C 1009.8 hPa SSE 20 km/h 24 km/h 82% 0.00 mm 0.00 W/m2
00:44 27.0 °C 24.0 °C 1009.8 hPa SSE 16 km/h 20 km/h 82% 0.00 mm 0.00 W/m2
00:47 27.0 °C 24.0 °C 1009.7 hPa SSE 12 km/h 20 km/h 83% 0.00 mm 0.00 W/m2
00:59 27.0 °C 24.0 °C 1009.8 hPa SSE 14 km/h 16 km/h 84% 0.00 mm 0.00 W/m2
01:04 27.0 °C 24.0 °C 1009.8 hPa South 22 km/h 24 km/h 84% 0.00 mm 0.00 W/m2
01:09 27.0 °C 24.0 °C 1009.8 hPa South 23 km/h 24 km/h 84% 0.00 mm 0.00 W/m2
01:14 27.0 °C 24.0 °C 1009.7 hPa South 25 km/h 28 km/h 84% 0.00 mm 0.00 W/m2
01:19 26.0 °C 24.0 °C 1009.7 hPa SSE 21 km/h 24 km/h 84% 0.00 mm 0.00 W/m2
01:24 27.0 °C 24.0 °C 1009.7 hPa SE 12 km/h 16 km/h 84% 0.00 mm 0.00 W/m2
01:29 27.0 °C 24.0 °C 1009.6 hPa SSE 7 km/h 8 km/h 84% 0.00 mm 0.00 W/m2
01:34 27.0 °C 24.0 °C 1009.5 hPa South 13 km/h 20 km/h 85% 0.00 mm 0.00 W/m2
01:39 26.0 °C 24.0 °C 1009.5 hPa South 19 km/h 24 km/h 86% 0.00 mm 0.00 W/m2
01:44 26.0 °C 24.0 °C 1009.6 hPa South 23 km/h 24 km/h 87% 1.80 mm 0.00 W/m2
01:49 26.0 °C 24.0 °C 1009.6 hPa South 22 km/h 32 km/h 89% 1.80 mm 0.00 W/m2
01:54 26.0 °C 24.0 °C 1009.6 hPa South 22 km/h 24 km/h 89% 3.61 mm 0.00 W/m2
01:59 26.0 °C 24.0 °C 1009.3 hPa SSE 10 km/h 12 km/h 89% 1.80 mm 0.00 W/m2
02:04 26.0 °C 24.0 °C 1009.2 hPa SE 6 km/h 12 km/h 90% 1.80 mm 0.00 W/m2
02:09 26.0 °C 24.0 °C 1009.2 hPa SE 9 km/h 12 km/h 90% 0.00 mm 0.00 W/m2
02:14 26.0 °C 24.0 °C 1009.2 hPa SE 8 km/h 12 km/h 90% 0.00 mm 0.00 W/m2
02:19 26.0 °C 24.0 °C 1009.2 hPa ESE 5 km/h 8 km/h 91% 0.00 mm 0.00 W/m2
02:24 26.0 °C 24.0 °C 1009.0 hPa SE 8 km/h 12 km/h 91% 0.00 mm 0.00 W/m2
02:29 26.0 °C 24.0 °C 1009.1 hPa SE 6 km/h 8 km/h 91% 0.00 mm 0.00 W/m2
02:31 26.0 °C 24.0 °C 1009.0 hPa SE 4 km/h 8 km/h 90% 0.00 mm 0.00 W/m2
02:44 26.0 °C 24.0 °C 1008.9 hPa SE 8 km/h 12 km/h 91% 0.00 mm 0.00 W/m2
02:49 26.0 °C 24.0 °C 1008.8 hPa SSE 6 km/h 8 km/h 90% 0.00 mm 0.00 W/m2
02:54 26.0 °C 24.0 °C 1008.9 hPa SE 9 km/h 12 km/h 90% 0.00 mm 0.00 W/m2
02:59 26.0 °C 24.0 °C 1008.8 hPa SE 8 km/h 12 km/h 91% 0.00 mm 0.00 W/m2
03:04 26.0 °C 24.0 °C 1008.6 hPa ESE 8 km/h 16 km/h 91% 0.00 mm 0.00 W/m2
03:09 26.0 °C 24.0 °C 1008.6 hPa SE 10 km/h 16 km/h 91% 0.00 mm 0.00 W/m2
03:14 26.0 °C 24.0 °C 1008.6 hPa SE 13 km/h 20 km/h 91% 0.00 mm 0.00 W/m2
03:19 26.0 °C 24.0 °C 1008.5 hPa SE 12 km/h 16 km/h 91% 0.00 mm 0.00 W/m2
03:24 26.0 °C 24.0 °C 1008.7 hPa ESE 9 km/h 12 km/h 91% 0.00 mm 0.00 W/m2
03:29 26.0 °C 24.0 °C 1008.5 hPa SE 10 km/h 16 km/h 92% 0.00 mm 0.00 W/m2
03:34 26.0 °C 24.0 °C 1008.7 hPa SE 5 km/h 12 km/h 92% 1.80 mm 0.00 W/m2
03:39 26.0 °C 24.0 °C 1008.9 hPa SSE 9 km/h 12 km/h 92% 1.80 mm 0.00 W/m2
03:44 26.0 °C 24.0 °C 1008.7 hPa SE 5 km/h 8 km/h 91% 1.80 mm 0.00 W/m2
03:49 26.0 °C 24.0 °C 1008.8 hPa SE 3 km/h 4 km/h 91% 0.00 mm 0.00 W/m2
03:54 26.0 °C 24.0 °C 1008.8 hPa SE 1 km/h 4 km/h 91% 0.00 mm 0.00 W/m2
03:59 26.0 °C 24.0 °C 1008.8 hPa ESE 5 km/h 8 km/h 91% 0.00 mm 0.00 W/m2
04:04 26.0 °C 24.0 °C 1008.8 hPa SE 11 km/h 16 km/h 90% 0.00 mm 0.00 W/m2
04:09 26.0 °C 24.0 °C 1008.9 hPa SE 11 km/h 16 km/h 89% 0.00 mm 0.00 W/m2
04:14 26.0 °C 24.0 °C 1009.0 hPa ESE 5 km/h 8 km/h 89% 0.00 mm 0.00 W/m2
04:15 26.0 °C 24.0 °C 1009.0 hPa East 1 km/h 4 km/h 89% 0.00 mm 0.00 W/m2
04:29 26.0 °C 24.0 °C 1008.9 hPa SE 14 km/h 20 km/h 89% 0.00 mm 0.00 W/m2
04:34 26.0 °C 24.0 °C 1008.8 hPa SE 10 km/h 12 km/h 89% 0.00 mm 0.00 W/m2
04:39 26.0 °C 24.0 °C 1008.7 hPa SE 10 km/h 16 km/h 89% 0.00 mm 0.00 W/m2
04:44 26.0 °C 24.0 °C 1008.7 hPa SE 13 km/h 16 km/h 89% 0.00 mm 0.00 W/m2
04:49 26.0 °C 24.0 °C 1008.8 hPa SE 13 km/h 20 km/h 89% 0.00 mm 0.00 W/m2
04:54 26.0 °C 24.0 °C 1008.7 hPa ESE 19 km/h 28 km/h 88% 0.00 mm 0.00 W/m2
04:59 26.0 °C 24.0 °C 1008.9 hPa SE 12 km/h 16 km/h 87% 0.00 mm 0.00 W/m2
05:04 26.0 °C 24.0 °C 1009.2 hPa SE 13 km/h 16 km/h 87% 0.00 mm 0.00 W/m2
05:09 26.0 °C 24.0 °C 1009.0 hPa SE 15 km/h 20 km/h 87% 0.00 mm 0.00 W/m2
05:14 26.0 °C 24.0 °C 1009.2 hPa ESE 15 km/h 24 km/h 87% 0.00 mm 0.00 W/m2
05:19 26.0 °C 24.0 °C 1009.0 hPa SE 10 km/h 16 km/h 87% 0.00 mm 0.00 W/m2
05:24 26.0 °C 24.0 °C 1008.9 hPa SE 15 km/h 16 km/h 87% 0.00 mm 0.00 W/m2
05:29 26.0 °C 24.0 °C 1009.1 hPa SSE 18 km/h 20 km/h 87% 0.00 mm 0.00 W/m2
05:34 26.0 °C 24.0 °C 1009.1 hPa SE 10 km/h 12 km/h 87% 0.00 mm 0.00 W/m2
05:39 26.0 °C 24.0 °C 1009.1 hPa SE 12 km/h 16 km/h 87% 0.00 mm 0.00 W/m2
05:44 26.0 °C 24.0 °C 1009.1 hPa ESE 12 km/h 16 km/h 87% 0.00 mm 1.22 W/m2
05:49 26.0 °C 24.0 °C 1009.0 hPa SE 6 km/h 8 km/h 87% 0.00 mm 2.57 W/m2
05:54 26.0 °C 24.0 °C 1009.1 hPa SE 6 km/h 8 km/h 87% 0.00 mm 5.14 W/m2
05:59 26.0 °C 24.0 °C 1009.2 hPa SSE 8 km/h 16 km/h 87% 0.00 mm 9.54 W/m2
06:09 26.0 °C 24.0 °C 1009.2 hPa SE 14 km/h 20 km/h 86% 0.00 mm 27.65 W/m2
06:14 26.0 °C 24.0 °C 1009.2 hPa SSE 16 km/h 20 km/h 86% 0.00 mm 29.85 W/m2
06:19 26.0 °C 24.0 °C 1009.2 hPa SE 13 km/h 24 km/h 86% 0.00 mm 34.25 W/m2
06:24 27.0 °C 24.0 °C 1009.2 hPa SE 14 km/h 20 km/h 86% 0.00 mm 35.97 W/m2
06:29 27.0 °C 24.0 °C 1009.3 hPa SSE 15 km/h 24 km/h 86% 0.00 mm 48.93 W/m2
06:34 27.0 °C 24.0 °C 1009.3 hPa SE 10 km/h 12 km/h 87% 0.00 mm 73.28 W/m2
06:39 27.0 °C 24.0 °C 1009.3 hPa SE 11 km/h 16 km/h 87% 0.00 mm 97.13 W/m2
06:44 27.0 °C 24.0 °C 1009.2 hPa SSE 13 km/h 20 km/h 86% 0.00 mm 108.39 W/m2
06:49 27.0 °C 24.0 °C 1009.4 hPa SSE 18 km/h 28 km/h 85% 0.00 mm 101.41 W/m2
06:54 27.0 °C 24.0 °C 1009.5 hPa SE 21 km/h 32 km/h 85% 0.00 mm 107.04 W/m2
06:59 27.0 °C 24.0 °C 1009.5 hPa SSE 27 km/h 36 km/h 84% 0.00 mm 108.88 W/m2
07:04 27.0 °C 24.0 °C 1009.5 hPa SE 27 km/h 44 km/h 84% 0.00 mm 106.19 W/m2
07:09 27.0 °C 24.0 °C 1009.6 hPa SSE 21 km/h 24 km/h 84% 0.00 mm 77.56 W/m2
07:14 27.0 °C 24.0 °C 1009.9 hPa SSE 27 km/h 32 km/h 84% 0.00 mm 110.59 W/m2
07:19 27.0 °C 24.0 °C 1009.9 hPa SSE 25 km/h 36 km/h 84% 0.00 mm 90.65 W/m2
07:24 27.0 °C 24.0 °C 1010.1 hPa South 41 km/h 48 km/h 84% 0.00 mm 51.99 W/m2
07:29 27.0 °C 24.0 °C 1010.2 hPa South 33 km/h 40 km/h 87% 3.61 mm 44.65 W/m2
07:34 27.0 °C 24.0 °C 1010.0 hPa South 36 km/h 48 km/h 89% 5.41 mm 63.24 W/m2
07:39 26.0 °C 24.0 °C 1010.1 hPa SE 18 km/h 24 km/h 90% 5.41 mm 85.88 W/m2
07:44 26.0 °C 24.0 °C 1010.3 hPa SSE 29 km/h 44 km/h 89% 1.80 mm 85.39 W/m2
07:49 26.0 °C 24.0 °C 1010.2 hPa SSE 12 km/h 20 km/h 88% 0.00 mm 129.19 W/m2
07:54 27.0 °C 24.0 °C 1010.2 hPa SSE 17 km/h 32 km/h 88% 1.80 mm 102.76 W/m2
07:59 27.0 °C 25.0 °C 1010.4 hPa SSE 22 km/h 28 km/h 87% 1.80 mm 199.04 W/m2
08:04 27.0 °C 25.0 °C 1010.5 hPa SSE 25 km/h 32 km/h 87% 1.80 mm 214.21 W/m2
08:09 27.0 °C 25.0 °C 1010.5 hPa SSE 44 km/h 53 km/h 88% 0.00 mm 191.21 W/m2
08:14 27.0 °C 25.0 °C 1010.7 hPa SSE 32 km/h 40 km/h 89% 1.80 mm 142.64 W/m2
08:19 27.0 °C 25.0 °C 1010.7 hPa SSE 35 km/h 44 km/h 89% 1.80 mm 107.53 W/m2
08:24 26.0 °C 25.0 °C 1010.7 hPa SSE 28 km/h 44 km/h 90% 1.80 mm 129.19 W/m2
08:29 26.0 °C 25.0 °C 1010.5 hPa SSE 22 km/h 28 km/h 90% 1.80 mm 137.51 W/m2
08:34 26.0 °C 25.0 °C 1010.8 hPa SSE 33 km/h 48 km/h 90% 1.80 mm 133.95 W/m2
08:39 26.0 °C 24.0 °C 1010.8 hPa South 41 km/h 44 km/h 88% 1.80 mm 161.73 W/m2
08:44 26.0 °C 24.0 °C 1010.7 hPa South 29 km/h 36 km/h 89% 0.00 mm 217.27 W/m2
08:49 26.0 °C 24.0 °C 1011.0 hPa South 29 km/h 40 km/h 89% 0.00 mm 224.24 W/m2
08:54 27.0 °C 25.0 °C 1010.8 hPa SSE 20 km/h 28 km/h 89% 0.00 mm 267.55 W/m2
08:59 27.0 °C 25.0 °C 1010.9 hPa SSE 19 km/h 24 km/h 89% 0.00 mm 268.03 W/m2
09:04 27.0 °C 25.0 °C 1010.9 hPa SSE 31 km/h 36 km/h 89% 0.00 mm 231.58 W/m2
09:09 27.0 °C 25.0 °C 1011.1 hPa SSE 25 km/h 28 km/h 89% 0.00 mm 183.50 W/m2
09:14 27.0 °C 25.0 °C 1010.9 hPa South 32 km/h 44 km/h 88% 0.00 mm 318.32 W/m2
09:19 27.0 °C 25.0 °C 1011.0 hPa SSE 27 km/h 32 km/h 88% 0.00 mm 344.01 W/m2
09:24 27.0 °C 25.0 °C 1010.9 hPa South 26 km/h 32 km/h 88% 0.00 mm 289.69 W/m2
09:29 27.0 °C 25.0 °C 1010.8 hPa SSE 30 km/h 36 km/h 88% 0.00 mm 218.12 W/m2
09:34 27.0 °C 25.0 °C 1010.8 hPa SSE 25 km/h 36 km/h 88% 0.00 mm 274.52 W/m2
09:39 27.0 °C 25.0 °C 1010.8 hPa SSE 23 km/h 32 km/h 87% 0.00 mm 307.06 W/m2
09:44 27.0 °C 25.0 °C 1010.6 hPa SSE 23 km/h 36 km/h 86% 0.00 mm 329.20 W/m2
09:49 27.0 °C 25.0 °C 1010.5 hPa SSE 38 km/h 48 km/h 85% 0.00 mm 331.40 W/m2
09:54 28.0 °C 25.0 °C 1010.6 hPa SSE 31 km/h 40 km/h 84% 0.00 mm 325.29 W/m2
09:59 28.0 °C 25.0 °C 1010.5 hPa SSE 30 km/h 40 km/h 83% 0.00 mm 331.78 W/m2
10:04 28.0 °C 25.0 °C 1010.5 hPa South 37 km/h 48 km/h 82% 0.00 mm 375.57 W/m2
10:09 28.0 °C 24.0 °C 1010.5 hPa South 32 km/h 44 km/h 80% 0.00 mm 467.20 W/m2
10:14 28.0 °C 25.0 °C 1010.6 hPa South 32 km/h 48 km/h 80% 0.00 mm 487.51 W/m2
10:19 29.0 °C 25.0 °C 1010.6 hPa South 49 km/h 56 km/h 80% 0.00 mm 473.69 W/m2
10:24 28.0 °C 25.0 °C 1010.5 hPa SSE 31 km/h 48 km/h 80% 0.00 mm 445.42 W/m2
10:29 28.0 °C 25.0 °C 1010.6 hPa South 31 km/h 40 km/h 80% 0.00 mm 435.03 W/m2
10:34 29.0 °C 25.0 °C 1010.5 hPa SSE 36 km/h 53 km/h 80% 0.00 mm 641.16 W/m2
10:39 29.0 °C 25.0 °C 1010.4 hPa South 35 km/h 40 km/h 78% 0.00 mm 685.33 W/m2
10:44 29.0 °C 25.0 °C 1010.5 hPa SE 30 km/h 40 km/h 78% 0.00 mm 621.22 W/m2
10:49 29.0 °C 25.0 °C 1010.8 hPa South 24 km/h 32 km/h 80% 0.00 mm 240.76 W/m2
10:54 29.0 °C 25.0 °C 1010.6 hPa South 32 km/h 40 km/h 82% 0.00 mm 480.17 W/m2
10:59 28.0 °C 25.0 °C 1010.5 hPa South 39 km/h 40 km/h 82% 0.00 mm 552.59 W/m2
11:04 28.0 °C 25.0 °C 1010.4 hPa South 35 km/h 56 km/h 81% 0.00 mm 500.11 W/m2
11:09 29.0 °C 25.0 °C 1010.5 hPa South 42 km/h 48 km/h 80% 0.00 mm 478.45 W/m2
11:14 29.0 °C 25.0 °C 1010.3 hPa South 37 km/h 48 km/h 79% 0.00 mm 438.57 W/m2
11:19 29.0 °C 25.0 °C 1010.3 hPa South 31 km/h 44 km/h 79% 0.00 mm 442.86 W/m2
11:24 29.0 °C 25.0 °C 1010.4 hPa South 31 km/h 40 km/h 79% 0.00 mm 427.69 W/m2
11:29 29.0 °C 25.0 °C 1010.3 hPa South 33 km/h 53 km/h 79% 0.00 mm 401.26 W/m2
11:34 29.0 °C 25.0 °C 1010.4 hPa South 41 km/h 48 km/h 79% 0.00 mm 316.61 W/m2
11:39 29.0 °C 25.0 °C 1010.3 hPa South 45 km/h 48 km/h 80% 0.00 mm 316.61 W/m2
11:44 28.0 °C 24.0 °C 1010.4 hPa South 43 km/h 53 km/h 79% 0.00 mm 358.32 W/m2
11:49 28.0 °C 24.0 °C 1010.3 hPa South 41 km/h 48 km/h 79% 0.00 mm 361.25 W/m2
11:54 28.0 °C 25.0 °C 1010.2 hPa South 42 km/h 48 km/h 79% 0.00 mm 499.74 W/m2
11:59 29.0 °C 25.0 °C 1010.0 hPa South 45 km/h 53 km/h 79% 0.00 mm 580.36 W/m2
12:04 29.0 °C 25.0 °C 1010.1 hPa South 33 km/h 44 km/h 78% 0.00 mm 704.41 W/m2
12:09 29.0 °C 25.0 °C 1010.0 hPa South 41 km/h 53 km/h 76% 0.00 mm 860.14 W/m2
12:14 30.0 °C 25.0 °C 1010.0 hPa South 26 km/h 32 km/h 76% 0.00 mm 784.66 W/m2
12:19 30.0 °C 25.0 °C 1009.7 hPa South 36 km/h 40 km/h 75% 0.00 mm 619.87 W/m2
12:24 30.0 °C 25.0 °C 1009.9 hPa South 27 km/h 32 km/h 76% 0.00 mm 353.55 W/m2
12:29 29.0 °C 25.0 °C 1010.0 hPa South 27 km/h 32 km/h 77% 0.00 mm 346.09 W/m2
12:34 29.0 °C 25.0 °C 1009.8 hPa SSE 30 km/h 44 km/h 77% 0.00 mm 585.62 W/m2
12:39 30.0 °C 25.0 °C 1009.8 hPa South 23 km/h 28 km/h 75% 0.00 mm 587.70 W/m2
12:44 30.0 °C 25.0 °C 1009.9 hPa South 33 km/h 36 km/h 75% 0.00 mm 477.60 W/m2
12:49 30.0 °C 25.0 °C 1009.9 hPa South 37 km/h 48 km/h 74% 0.00 mm 432.94 W/m2
12:54 30.0 °C 25.0 °C 1010.0 hPa South 26 km/h 32 km/h 74% 0.00 mm 356.98 W/m2
12:59 30.0 °C 25.0 °C 1010.1 hPa South 25 km/h 28 km/h 76% 0.00 mm 254.21 W/m2
13:04 30.0 °C 25.0 °C 1010.1 hPa South 34 km/h 40 km/h 76% 0.00 mm 221.18 W/m2
13:09 29.0 °C 25.0 °C 1010.1 hPa SSW 55 km/h 68 km/h 78% 0.00 mm 222.90 W/m2
13:14 29.0 °C 25.0 °C 1010.3 hPa SSW 31 km/h 44 km/h 80% 0.00 mm 190.36 W/m2
13:19 29.0 °C 25.0 °C 1010.3 hPa SSW 30 km/h 32 km/h 82% 0.00 mm 135.30 W/m2
13:24 28.0 °C 26.0 °C 1010.5 hPa SW 24 km/h 36 km/h 88% 8.99 mm 95.79 W/m2
13:29 27.0 °C 25.0 °C 1010.5 hPa SW 50 km/h 64 km/h 91% 12.60 mm 115.73 W/m2
13:34 27.0 °C 26.0 °C 1010.5 hPa SW 47 km/h 61 km/h 92% 12.60 mm 93.58 W/m2
13:39 26.0 °C 24.0 °C 1010.5 hPa SW 42 km/h 53 km/h 88% 7.19 mm 83.19 W/m2
13:44 26.0 °C 24.0 °C 1010.6 hPa SSW 41 km/h 56 km/h 88% 5.41 mm 63.73 W/m2
13:49 26.0 °C 24.0 °C 1010.7 hPa SW 35 km/h 68 km/h 90% 5.41 mm 58.48 W/m2
13:54 26.0 °C 24.0 °C 1010.7 hPa SSW 27 km/h 40 km/h 91% 7.19 mm 65.94 W/m2
13:59 26.0 °C 24.0 °C 1010.6 hPa SW 32 km/h 40 km/h 91% 5.41 mm 50.65 W/m2
14:04 26.0 °C 25.0 °C 1010.5 hPa SSW 28 km/h 40 km/h 91% 3.61 mm 110.10 W/m2
14:09 26.0 °C 25.0 °C 1010.5 hPa SSW 22 km/h 28 km/h 92% 3.61 mm 124.90 W/m2
14:14 26.0 °C 25.0 °C 1010.5 hPa SSW 34 km/h 40 km/h 91% 1.80 mm 121.36 W/m2
14:19 26.0 °C 25.0 °C 1010.4 hPa SSW 19 km/h 24 km/h 91% 1.80 mm 105.33 W/m2
14:24 26.0 °C 25.0 °C 1010.3 hPa SSW 24 km/h 28 km/h 91% 3.61 mm 96.65 W/m2
14:29 26.0 °C 25.0 °C 1010.3 hPa SSW 16 km/h 20 km/h 91% 3.61 mm 99.34 W/m2
14:34 26.0 °C 25.0 °C 1010.3 hPa SSW 28 km/h 40 km/h 92% 3.61 mm 85.88 W/m2
14:39 26.0 °C 25.0 °C 1010.2 hPa SSW 23 km/h 32 km/h 90% 1.80 mm 61.17 W/m2
14:44 26.0 °C 25.0 °C 1010.4 hPa SSW 44 km/h 56 km/h 92% 8.99 mm 37.68 W/m2
14:49 26.0 °C 25.0 °C 1010.5 hPa SW 47 km/h 61 km/h 93% 25.20 mm 57.62 W/m2
14:54 26.0 °C 24.0 °C 1010.3 hPa SSW 25 km/h 28 km/h 94% 30.61 mm 62.39 W/m2
14:59 25.0 °C 24.0 °C 1010.3 hPa SW 50 km/h 64 km/h 94% 30.61 mm 85.02 W/m2
15:04 25.0 °C 24.0 °C 1010.1 hPa SW 28 km/h 36 km/h 94% 21.59 mm 83.68 W/m2
15:09 26.0 °C 25.0 °C 1010.2 hPa SSW 39 km/h 53 km/h 94% 8.99 mm 78.90 W/m2
15:14 26.0 °C 25.0 °C 1010.4 hPa SW 32 km/h 40 km/h 94% 3.61 mm 57.62 W/m2
15:19 26.0 °C 25.0 °C 1010.6 hPa SSW 33 km/h 44 km/h 94% 12.60 mm 47.22 W/m2
15:24 26.0 °C 24.0 °C 1010.5 hPa SW 44 km/h 64 km/h 93% 19.81 mm 61.53 W/m2
15:29 25.0 °C 24.0 °C 1010.6 hPa SW 21 km/h 32 km/h 94% 19.81 mm 60.68 W/m2
15:34 25.0 °C 24.0 °C 1010.3 hPa SW 24 km/h 28 km/h 94% 10.80 mm 74.14 W/m2
15:39 25.0 °C 24.0 °C 1010.3 hPa SSW 26 km/h 36 km/h 93% 0.00 mm 76.34 W/m2
15:44 25.0 °C 24.0 °C 1010.4 hPa SW 21 km/h 28 km/h 92% 0.00 mm 70.71 W/m2
15:49 25.0 °C 24.0 °C 1010.4 hPa SW 14 km/h 20 km/h 93% 0.00 mm 81.10 W/m2
15:54 25.0 °C 24.0 °C 1010.4 hPa SSW 15 km/h 24 km/h 93% 0.00 mm 85.39 W/m2
15:59 26.0 °C 24.0 °C 1010.4 hPa South 20 km/h 24 km/h 92% 0.00 mm 90.65 W/m2
16:04 26.0 °C 24.0 °C 1010.3 hPa SSW 20 km/h 24 km/h 92% 0.00 mm 95.42 W/m2
16:09 26.0 °C 25.0 °C 1010.3 hPa South 16 km/h 20 km/h 92% 0.00 mm 95.79 W/m2
16:14 26.0 °C 25.0 °C 1010.4 hPa South 20 km/h 28 km/h 92% 0.00 mm 95.42 W/m2
16:19 26.0 °C 25.0 °C 1010.4 hPa South 23 km/h 28 km/h 91% 0.00 mm 89.79 W/m2
16:24 26.0 °C 25.0 °C 1010.5 hPa SSE 18 km/h 24 km/h 91% 0.00 mm 86.73 W/m2
16:29 27.0 °C 25.0 °C 1010.4 hPa South 42 km/h 48 km/h 89% 0.00 mm 81.97 W/m2
16:34 27.0 °C 25.0 °C 1010.3 hPa South 37 km/h 40 km/h 86% 0.00 mm 81.97 W/m2
16:39 27.0 °C 24.0 °C 1010.5 hPa South 28 km/h 36 km/h 85% 0.00 mm 80.62 W/m2
16:44 27.0 °C 24.0 °C 1010.6 hPa South 33 km/h 40 km/h 84% 0.00 mm 90.16 W/m2
16:49 27.0 °C 24.0 °C 1010.5 hPa South 19 km/h 24 km/h 84% 0.00 mm 89.31 W/m2
16:54 27.0 °C 24.0 °C 1010.6 hPa SSE 21 km/h 28 km/h 85% 0.00 mm 89.31 W/m2
16:59 27.0 °C 24.0 °C 1010.8 hPa South 24 km/h 32 km/h 85% 0.00 mm 81.48 W/m2
17:04 27.0 °C 24.0 °C 1010.8 hPa SSE 24 km/h 28 km/h 85% 0.00 mm 109.24 W/m2
17:09 27.0 °C 24.0 °C 1010.6 hPa SSE 24 km/h 28 km/h 85% 0.00 mm 98.85 W/m2
17:14 27.0 °C 25.0 °C 1010.7 hPa SSE 22 km/h 28 km/h 86% 0.00 mm 58.48 W/m2
17:19 27.0 °C 25.0 °C 1010.6 hPa SE 24 km/h 32 km/h 86% 0.00 mm 49.79 W/m2
17:24 27.0 °C 24.0 °C 1010.5 hPa South 31 km/h 32 km/h 86% 0.00 mm 64.96 W/m2
17:29 27.0 °C 24.0 °C 1010.5 hPa South 20 km/h 20 km/h 87% 0.00 mm 74.99 W/m2
17:34 27.0 °C 24.0 °C 1010.7 hPa South 17 km/h 20 km/h 87% 0.00 mm 67.65 W/m2
17:39 27.0 °C 24.0 °C 1010.6 hPa SE 14 km/h 20 km/h 87% 0.00 mm 57.62 W/m2
17:44 27.0 °C 24.0 °C 1010.6 hPa SSE 22 km/h 28 km/h 87% 0.00 mm 47.71 W/m2
17:49 27.0 °C 24.0 °C 1010.5 hPa SSE 29 km/h 44 km/h 84% 0.00 mm 32.42 W/m2
17:54 27.0 °C 24.0 °C 1010.6 hPa South 43 km/h 53 km/h 84% 0.00 mm 22.87 W/m2
17:59 27.0 °C 24.0 °C 1010.5 hPa South 47 km/h 53 km/h 83% 0.00 mm 19.45 W/m2
18:04 27.0 °C 24.0 °C 1010.6 hPa South 37 km/h 44 km/h 83% 0.00 mm 15.17 W/m2
18:09 27.0 °C 24.0 °C 1010.8 hPa South 36 km/h 44 km/h 82% 0.00 mm 10.77 W/m2
18:14 27.0 °C 24.0 °C 1010.8 hPa South 39 km/h 44 km/h 82% 0.00 mm 7.34 W/m2
18:19 27.0 °C 24.0 °C 1010.9 hPa South 25 km/h 28 km/h 83% 0.00 mm 2.57 W/m2
18:24 27.0 °C 24.0 °C 1011.1 hPa South 39 km/h 48 km/h 82% 0.00 mm 0.36 W/m2
18:29 27.0 °C 24.0 °C 1011.1 hPa South 23 km/h 28 km/h 83% 0.00 mm 0.00 W/m2
18:34 27.0 °C 24.0 °C 1011.1 hPa South 31 km/h 36 km/h 83% 0.00 mm 0.00 W/m2
18:39 27.0 °C 24.0 °C 1011.1 hPa South 36 km/h 40 km/h 82% 0.00 mm 0.00 W/m2
18:44 27.0 °C 24.0 °C 1011.2 hPa South 27 km/h 32 km/h 81% 0.00 mm 0.00 W/m2
18:49 27.0 °C 24.0 °C 1011.0 hPa SSE 27 km/h 32 km/h 82% 0.00 mm 0.00 W/m2
18:54 27.0 °C 24.0 °C 1011.0 hPa South 21 km/h 28 km/h 82% 0.00 mm 0.00 W/m2
18:59 27.0 °C 24.0 °C 1011.1 hPa South 34 km/h 44 km/h 82% 0.00 mm 0.00 W/m2
19:04 27.0 °C 24.0 °C 1011.1 hPa South 20 km/h 24 km/h 82% 0.00 mm 0.00 W/m2
19:09 27.0 °C 24.0 °C 1011.0 hPa South 17 km/h 20 km/h 83% 0.00 mm 0.00 W/m2
19:14 27.0 °C 24.0 °C 1011.0 hPa SSE 20 km/h 28 km/h 83% 0.00 mm 0.00 W/m2
19:19 27.0 °C 24.0 °C 1011.1 hPa SSE 19 km/h 24 km/h 83% 0.00 mm 0.00 W/m2
19:24 27.0 °C 24.0 °C 1011.2 hPa South 19 km/h 20 km/h 83% 0.00 mm 0.00 W/m2
19:29 27.0 °C 24.0 °C 1011.2 hPa SSE 18 km/h 24 km/h 83% 0.00 mm 0.00 W/m2
19:34 27.0 °C 24.0 °C 1011.3 hPa SSE 17 km/h 20 km/h 83% 0.00 mm 0.00 W/m2
19:39 27.0 °C 24.0 °C 1011.4 hPa SSE 10 km/h 12 km/h 83% 0.00 mm 0.00 W/m2
19:44 27.0 °C 24.0 °C 1011.6 hPa SSE 10 km/h 16 km/h 84% 0.00 mm 0.00 W/m2
19:49 27.0 °C 24.0 °C 1011.6 hPa South 10 km/h 12 km/h 84% 0.00 mm 0.00 W/m2
19:54 27.0 °C 24.0 °C 1011.5 hPa SSE 15 km/h 16 km/h 84% 0.00 mm 0.00 W/m2
19:59 27.0 °C 24.0 °C 1011.5 hPa South 16 km/h 20 km/h 84% 0.00 mm 0.00 W/m2
20:04 27.0 °C 24.0 °C 1011.6 hPa South 15 km/h 16 km/h 83% 0.00 mm 0.00 W/m2
20:09 27.0 °C 24.0 °C 1011.6 hPa South 15 km/h 20 km/h 83% 0.00 mm 0.00 W/m2
20:14 27.0 °C 24.0 °C 1011.7 hPa South 20 km/h 24 km/h 83% 0.00 mm 0.00 W/m2
20:19 27.0 °C 24.0 °C 1011.7 hPa South 16 km/h 20 km/h 82% 0.00 mm 0.00 W/m2
20:24 27.0 °C 24.0 °C 1011.6 hPa South 25 km/h 28 km/h 82% 0.00 mm 0.00 W/m2
20:34 27.0 °C 24.0 °C 1011.8 hPa SSE 14 km/h 16 km/h 81% 0.00 mm 0.00 W/m2
20:39 27.0 °C 24.0 °C 1012.0 hPa South 21 km/h 28 km/h 81% 0.00 mm 0.00 W/m2
20:44 27.0 °C 24.0 °C 1012.0 hPa South 22 km/h 28 km/h 80% 0.00 mm 0.00 W/m2
20:49 27.0 °C 24.0 °C 1011.9 hPa South 21 km/h 32 km/h 81% 0.00 mm 0.00 W/m2
20:54 27.0 °C 24.0 °C 1012.1 hPa South 22 km/h 32 km/h 80% 0.00 mm 0.00 W/m2
20:59 28.0 °C 24.0 °C 1011.9 hPa South 27 km/h 32 km/h 80% 0.00 mm 0.00 W/m2
21:04 28.0 °C 24.0 °C 1011.9 hPa South 20 km/h 24 km/h 79% 0.00 mm 0.00 W/m2
21:09 27.0 °C 24.0 °C 1012.2 hPa South 21 km/h 28 km/h 80% 0.00 mm 0.00 W/m2
21:14 28.0 °C 24.0 °C 1012.1 hPa South 24 km/h 32 km/h 80% 0.00 mm 0.00 W/m2
21:19 28.0 °C 24.0 °C 1012.3 hPa South 25 km/h 32 km/h 80% 0.00 mm 0.00 W/m2
21:24 28.0 °C 24.0 °C 1012.4 hPa South 24 km/h 36 km/h 80% 0.00 mm 0.00 W/m2
21:29 28.0 °C 24.0 °C 1012.4 hPa South 23 km/h 28 km/h 80% 0.00 mm 0.00 W/m2
21:34 28.0 °C 24.0 °C 1012.5 hPa SSW 30 km/h 36 km/h 79% 0.00 mm 0.00 W/m2
21:39 28.0 °C 24.0 °C 1012.6 hPa SSW 31 km/h 36 km/h 79% 0.00 mm 0.00 W/m2
21:44 28.0 °C 24.0 °C 1012.8 hPa SSW 32 km/h 36 km/h 79% 0.00 mm 0.00 W/m2
21:49 28.0 °C 24.0 °C 1012.9 hPa South 28 km/h 32 km/h 80% 0.00 mm 0.00 W/m2
21:54 28.0 °C 24.0 °C 1013.0 hPa SSW 22 km/h 28 km/h 80% 0.00 mm 0.00 W/m2
21:59 28.0 °C 24.0 °C 1013.2 hPa South 30 km/h 40 km/h 80% 0.00 mm 0.00 W/m2
22:04 28.0 °C 24.0 °C 1013.1 hPa SSW 34 km/h 40 km/h 80% 0.00 mm 0.00 W/m2
22:08 28.0 °C 24.0 °C 1013.1 hPa SSW 33 km/h 40 km/h 80% 0.00 mm 0.00 W/m2
22:19 28.0 °C 24.0 °C 1013.1 hPa South 26 km/h 32 km/h 80% 0.00 mm 0.00 W/m2
22:24 28.0 °C 24.0 °C 1013.1 hPa South 38 km/h 48 km/h 79% 0.00 mm 0.00 W/m2
22:29 28.0 °C 24.0 °C 1012.9 hPa South 31 km/h 40 km/h 79% 0.00 mm 0.00 W/m2
22:34 28.0 °C 24.0 °C 1013.2 hPa SSW 17 km/h 24 km/h 80% 0.00 mm 0.00 W/m2
22:39 28.0 °C 25.0 °C 1013.5 hPa WSW 41 km/h 61 km/h 91% 21.59 mm 0.00 W/m2
22:44 26.0 °C 25.0 °C 1013.8 hPa WSW 39 km/h 48 km/h 93% 28.80 mm 0.00 W/m2
22:49 25.0 °C 24.0 °C 1013.7 hPa SW 26 km/h 28 km/h 94% 25.20 mm 0.00 W/m2
22:54 25.0 °C 24.0 °C 1013.8 hPa SW 25 km/h 32 km/h 94% 10.80 mm 0.00 W/m2
22:59 26.0 °C 24.0 °C 1013.6 hPa SW 28 km/h 32 km/h 92% 3.61 mm 0.00 W/m2
23:04 26.0 °C 24.0 °C 1013.7 hPa SW 26 km/h 32 km/h 90% 0.00 mm 0.00 W/m2
23:09 26.0 °C 24.0 °C 1013.7 hPa SW 29 km/h 36 km/h 90% 0.00 mm 0.00 W/m2
23:14 26.0 °C 25.0 °C 1013.8 hPa SW 19 km/h 28 km/h 91% 0.00 mm 0.00 W/m2
23:19 26.0 °C 25.0 °C 1013.5 hPa SW 17 km/h 24 km/h 91% 0.00 mm 0.00 W/m2
23:24 26.0 °C 25.0 °C 1013.4 hPa SW 24 km/h 36 km/h 91% 0.00 mm 0.00 W/m2
23:29 26.0 °C 25.0 °C 1013.3 hPa SSW 21 km/h 28 km/h 90% 0.00 mm 0.00 W/m2
23:34 26.0 °C 24.0 °C 1013.4 hPa SSW 36 km/h 48 km/h 88% 0.00 mm 0.00 W/m2
23:39 26.0 °C 24.0 °C 1013.4 hPa SSW 25 km/h 28 km/h 88% 0.00 mm 0.00 W/m2
23:44 26.0 °C 24.0 °C 1013.4 hPa SSW 25 km/h 32 km/h 88% 0.00 mm 0.00 W/m2
23:49 26.0 °C 24.0 °C 1013.3 hPa South 29 km/h 32 km/h 88% 0.00 mm 0.00 W/m2
23:52 26.0 °C 24.0 °C 1013.2 hPa SSW 19 km/h 24 km/h 88% 0.00 mm 0.00 W/m2
23:59 27.0 °C 24.0 °C 1013.3 hPa SSW 9 km/h 12 km/h 87% 0.00 mm 0.00 W/m2
PIMOHWEATHER Philippines
Compliments of Weather Underground - 2 mb